• pl
  • eng

Awiacja
TAF FT 06:30 18.02.2018
  • WIND
  • SIGNIFICANT EURO
  • SIGNIFICANT
  • SIGMET
  • AIRMET
  • TAF FC
  • TAF FT
  • METAR GG30
  • METAR GG00


TAF EPBY 180530Z 1806/1906 28004KT 3000 BR SCT030
BECMG 1807/1809 9999
PROB30 TEMPO 1818/1906 BKN014=

TAF EPGD 180530Z 1806/1906 30004KT 4000 BR SCT030
BECMG 1806/1808 9999
PROB40 TEMPO 1815/1823 3000 -SN BR BKN005 BKN014=

TAF EPKK 180530Z 1806/1906 36010KT 6000 BKN020
TEMPO 1806/1815 3000 -SN BR BKN012
PROB30 TEMPO 1806/1808 1200 FZDZ BR BKN005 BKN010
PROB30 TEMPO 1808/1815 1200 -SN BR BKN005 BKN010
BECMG 1818/1821 VRB02KT
BECMG 1821/1824 3000 BR
TEMPO 1900/1906 0600 FZFG BKN002=

TAF EPKT 180530Z 1806/1906 36010KT 6000 BKN030
TEMPO 1806/1812 2000 -SN BR OVC010
PROB30 TEMPO 1806/1807 1200 FZDZ BR BKN004 BKN010
PROB30 TEMPO 1807/1812 1200 -RASN BR BKN004 BKN010
BECMG 1818/1821 VRB02KT 3000 BR
BECMG 1821/1824 1200 BR
TEMPO 1900/1906 0600 FZFG BKN002=

TAF EPLL 180530Z 1806/1906 34010KT 9999 BKN010
BECMG 1806/1809 SCT020
BECMG 1816/1819 VRB02KT
TEMPO 1820/1906 3000 BR
PROB40 1900/1906 BKN004=

TAF EPMO 180530Z 1806/1906 34010KT 9999 BKN027
BECMG 1818/1820 27004KT
PROB40 1900/1906 BKN004=

TAF EPPO 180530Z 1806/1906 33005KT 9999 SCT012 BKN030
TEMPO 1806/1809 4000 BR BKN008 OVC015=

TAF EPRZ 180530Z 1806/1906 25004KT 5000 BR BKN020
BECMG 1806/1808 35012KT
TEMPO 1806/1815 2000 -SN BR BKN012
PROB30 TEMPO 1806/1815 1200 SN BR BKN004 BKN012=

TAF EPSC 180530Z 1806/1906 VRB02KT 9999 OVC030=

TAF EPWA 180530Z 1806/1906 35010KT 9999 BKN027
BECMG 1818/1821 27004KT=

TAF EPWR 180530Z 1806/1906 34005KT 9999 SCT008 BKN030
TEMPO 1806/1810 4000 -SN BR BKN008
PROB30 TEMPO 1810/1815 -SN BKN013=
Awiacja.imgw.pl jest pogodowym serwisem informacyjnym
Instytutu Meteorologii i Gospodarki Wodnej Państwowego Instytutu Badawczego.
Copyright IMGW PIB 2009-2011© Wszelkie prawa zastrzeżone.